Time;durP1;ratioP1;P1;durP2;ratioP2;P2;SDS_P1;SDS_P2;PMS_P1;PMS_P2;Temp;Humidity;BMP_temperature;BMP_pressure;BME280_temperature;BME280_humidity;BME280_pressure;Samples;Min_cycle;Max_cycle;Signal;HPM_P1;HPM_P2
2023/07/07 00:01:02;;;;;;;3.53;2.45;;;13.00;99.90;;;;;;5064561;28;20059;-79
2023/07/07 00:03:28;;;;;;;5.63;2.65;;;13.00;99.90;;;;;;5063805;28;20056;-79
2023/07/07 00:05:54;;;;;;;5.53;2.45;;;13.00;99.90;;;;;;5065227;28;20090;-79
2023/07/07 00:08:20;;;;;;;3.35;2.53;;;12.90;99.90;;;;;;5062896;28;20080;-79
2023/07/07 00:10:46;;;;;;;6.57;2.25;;;12.80;99.90;;;;;;5032592;28;20062;-78
2023/07/07 00:13:13;;;;;;;3.72;2.35;;;12.80;99.90;;;;;;5045393;28;20045;-80
2023/07/07 00:15:46;;;;;;;4.75;2.47;;;12.80;99.90;;;;;;5064408;28;20045;-80
2023/07/07 00:18:26;;;;;;;3.22;2.50;;;12.80;99.90;;;;;;5046814;28;20400;-80
2023/07/07 00:20:53;;;;;;;4.60;2.42;;;12.70;99.90;;;;;;5061911;28;20059;-79
2023/07/07 00:23:18;;;;;;;3.22;2.50;;;12.70;99.90;;;;;;5064593;28;20123;-79
2023/07/07 00:25:44;;;;;;;4.50;2.67;;;12.60;99.90;;;;;;5044620;28;20763;-79
2023/07/07 00:28:09;;;;;;;3.17;2.50;;;12.60;99.90;;;;;;5064363;28;20122;-80
2023/07/07 00:30:35;;;;;;;4.20;2.30;;;12.60;99.90;;;;;;5045153;28;20058;-79
2023/07/07 00:33:01;;;;;;;5.07;2.63;;;12.60;99.90;;;;;;5033432;28;20451;-79
2023/07/07 00:35:27;;;;;;;3.22;2.50;;;12.50;99.90;;;;;;5049935;28;20040;-79
2023/07/07 00:37:52;;;;;;;2.65;2.08;;;12.50;99.90;;;;;;5067085;28;20120;-80
2023/07/07 00:40:19;;;;;;;3.65;2.45;;;12.50;99.90;;;;;;5068848;28;20082;-78
2023/07/07 00:42:45;;;;;;;3.92;2.30;;;12.50;99.90;;;;;;5064845;28;20554;-79
2023/07/07 00:45:17;;;;;;;4.63;2.45;;;12.50;99.90;;;;;;5050598;28;20040;-80
2023/07/07 00:47:51;;;;;;;5.30;2.65;;;12.50;99.90;;;;;;5065092;28;20131;-79
2023/07/07 00:50:20;;;;;;;9.25;2.25;;;12.40;99.90;;;;;;5066897;28;20114;-79
2023/07/07 00:52:46;;;;;;;3.50;2.53;;;12.50;99.90;;;;;;5050355;28;20044;-79
2023/07/07 00:55:19;;;;;;;3.03;1.92;;;12.40;99.90;;;;;;5032004;28;20137;-79
2023/07/07 00:57:45;;;;;;;6.32;2.35;;;12.40;99.90;;;;;;5067246;28;20102;-79
2023/07/07 01:00:12;;;;;;;2.90;2.20;;;12.40;99.90;;;;;;5064788;28;20048;-81
2023/07/07 01:02:38;;;;;;;3.25;2.33;;;12.30;99.90;;;;;;5050442;28;20049;-81
2023/07/07 01:05:05;;;;;;;3.40;2.28;;;12.30;99.90;;;;;;5065828;28;20052;-78
2023/07/07 01:07:40;;;;;;;3.33;2.08;;;12.30;99.90;;;;;;5066189;28;20126;-79
2023/07/07 01:10:06;;;;;;;5.95;2.63;;;12.20;99.90;;;;;;5067610;28;20465;-79
2023/07/07 01:12:32;;;;;;;4.88;2.85;;;12.30;99.90;;;;;;5064915;28;20048;-79
2023/07/07 01:14:58;;;;;;;4.15;2.95;;;12.20;99.90;;;;;;5067397;28;20051;-79
2023/07/07 01:17:33;;;;;;;6.93;2.70;;;12.20;99.90;;;;;;5047978;28;20053;-80
2023/07/07 01:20:05;;;;;;;3.55;2.55;;;12.60;99.90;;;;;;5068354;28;20048;-79
2023/07/07 01:23:02;;;;;;;4.35;2.80;;;12.10;99.90;;;;;;5066384;28;20124;-80
2023/07/07 01:26:10;;;;;;;4.85;2.85;;;12.10;99.90;;;;;;5065935;28;20194;-81
2023/07/07 01:28:53;;;;;;;3.88;2.72;;;12.10;99.90;;;;;;5066839;28;20052;-79
2023/07/07 01:31:40;;;;;;;3.47;2.47;;;12.10;99.90;;;;;;5068053;28;20045;-79
2023/07/07 01:34:12;;;;;;;6.22;2.55;;;12.10;99.90;;;;;;5063936;28;20171;-80
2023/07/07 01:36:37;;;;;;;5.57;2.67;;;12.00;99.90;;;;;;5066508;28;20434;-79
2023/07/07 01:39:03;;;;;;;3.17;2.47;;;12.00;99.90;;;;;;5066213;28;20041;-79
2023/07/07 01:41:44;;;;;;;5.13;2.35;;;12.00;99.90;;;;;;5069171;28;20084;-79
2023/07/07 01:44:29;;;;;;;5.10;3.13;;;12.00;99.90;;;;;;5069804;28;20044;-79
2023/07/07 01:46:59;;;;;;;3.78;2.85;;;11.90;99.90;;;;;;5064810;28;20056;-80
2023/07/07 01:49:36;;;;;;;6.85;3.08;;;11.90;99.90;;;;;;5067018;28;20169;-80
2023/07/07 01:52:17;;;;;;;4.35;2.33;;;11.90;99.90;;;;;;5064978;28;20083;-80
2023/07/07 01:54:49;;;;;;;4.60;3.00;;;11.90;99.90;;;;;;5064738;28;20055;-80
2023/07/07 01:57:17;;;;;;;4.20;2.70;;;11.90;99.90;;;;;;5066713;28;20048;-79
2023/07/07 01:59:43;;;;;;;6.57;3.80;;;12.80;99.90;;;;;;5063989;28;20395;-80
2023/07/07 02:02:09;;;;;;;6.82;3.25;;;11.90;99.90;;;;;;5066317;28;20062;-80
2023/07/07 02:04:35;;;;;;;4.53;3.28;;;11.90;99.90;;;;;;5030976;28;20453;-79
2023/07/07 02:07:01;;;;;;;9.45;5.18;;;11.90;99.90;;;;;;5048775;28;20045;-79
2023/07/07 02:09:27;;;;;;;5.40;3.58;;;11.90;99.90;;;;;;5048708;28;20040;-79
2023/07/07 02:11:52;;;;;;;5.55;3.53;;;11.80;99.90;;;;;;5048093;28;20110;-79
2023/07/07 02:14:18;;;;;;;3.78;2.90;;;11.90;99.90;;;;;;5032835;28;20044;-80
2023/07/07 02:16:44;;;;;;;5.20;3.67;;;11.80;99.90;;;;;;5046788;28;20193;-79
2023/07/07 02:19:10;;;;;;;4.15;3.38;;;11.80;99.90;;;;;;5067386;28;20052;-79
2023/07/07 02:21:35;;;;;;;5.68;3.53;;;11.80;99.90;;;;;;5064788;28;20048;-78
2023/07/07 02:24:01;;;;;;;7.82;3.63;;;11.80;99.90;;;;;;5066726;28;20048;-80
2023/07/07 02:26:28;;;;;;;4.25;3.25;;;11.80;99.90;;;;;;5064418;28;20150;-79
2023/07/07 02:28:54;;;;;;;5.43;3.45;;;11.80;99.90;;;;;;5064394;28;20044;-79
2023/07/07 02:31:24;;;;;;;6.65;3.85;;;11.80;99.90;;;;;;5065820;28;20554;-80
2023/07/07 02:33:50;;;;;;;8.57;3.97;;;11.70;99.90;;;;;;5063483;28;20040;-79
2023/07/07 02:36:18;;;;;;;6.22;3.90;;;11.80;99.90;;;;;;5066988;28;20095;-79
2023/07/07 02:38:45;;;;;;;5.93;3.33;;;11.80;99.90;;;;;;5063451;28;20045;-79
2023/07/07 02:41:11;;;;;;;8.57;4.80;;;11.70;99.90;;;;;;5064785;28;20048;-80
2023/07/07 02:43:37;;;;;;;3.65;2.90;;;12.50;99.90;;;;;;5047746;28;20151;-80
2023/07/07 02:46:03;;;;;;;6.00;3.58;;;11.70;99.90;;;;;;5064724;28;20053;-80
2023/07/07 02:48:30;;;;;;;8.80;4.53;;;11.70;99.90;;;;;;5065676;28;20040;-79
2023/07/07 02:51:02;;;;;;;6.72;4.20;;;10.30;99.90;;;;;;5064226;28;20515;-80
2023/07/07 02:53:30;;;;;;;6.38;4.18;;;11.80;99.90;;;;;;5064984;28;20088;-80
2023/07/07 02:55:57;;;;;;;8.27;5.50;;;11.90;99.90;;;;;;5063730;28;20044;-80
2023/07/07 02:58:24;;;;;;;11.02;4.97;;;11.80;99.90;;;;;;5065568;28;20067;-79
2023/07/07 03:00:50;;;;;;;7.85;5.15;;;11.90;99.90;;;;;;5047410;28;20127;-79
2023/07/07 03:03:17;;;;;;;8.88;5.85;;;12.10;99.90;;;;;;5063007;28;20045;-79
2023/07/07 03:05:43;;;;;;;10.95;6.10;;;13.70;99.90;;;;;;5064565;28;20076;-78
2023/07/07 03:08:09;;;;;;;10.98;6.65;;;12.10;99.90;;;;;;5063400;28;20087;-79
2023/07/07 03:10:36;;;;;;;11.75;7.20;;;12.30;99.90;;;;;;5064958;28;20048;-79
2023/07/07 03:13:02;;;;;;;11.15;6.60;;;12.40;99.90;;;;;;5066434;28;20041;-78
2023/07/07 03:15:38;;;;;;;13.02;6.88;;;12.50;99.90;;;;;;5065164;28;20105;-78
2023/07/07 03:18:14;;;;;;;14.50;8.02;;;12.60;99.90;;;;;;5048427;28;20094;-78
2023/07/07 03:20:49;;;;;;;15.57;7.93;;;12.80;99.90;;;;;;5045969;28;20437;-79
2023/07/07 03:23:15;;;;;;;15.02;7.53;;;12.90;99.90;;;;;;5064537;28;20044;-79
2023/07/07 03:25:41;;;;;;;11.18;7.10;;;13.00;99.90;;;;;;5062272;28;20087;-79
2023/07/07 03:28:08;;;;;;;14.13;7.38;;;13.10;99.90;;;;;;5064954;28;20410;-81
2023/07/07 03:30:36;;;;;;;16.83;7.78;;;13.20;99.90;;;;;;5063093;28;20060;-80
2023/07/07 03:33:02;;;;;;;10.27;6.50;;;13.30;99.90;;;;;;5029796;28;20087;-79
2023/07/07 03:35:28;;;;;;;9.38;6.65;;;13.30;99.90;;;;;;5047606;28;20482;-80
2023/07/07 03:37:53;;;;;;;11.13;7.10;;;13.40;99.90;;;;;;5045646;28;20045;-80
2023/07/07 03:40:19;;;;;;;11.90;7.70;;;13.40;99.90;;;;;;5064272;28;20044;-79
2023/07/07 03:42:45;;;;;;;10.85;6.75;;;13.50;99.90;;;;;;5061736;28;20087;-80
2023/07/07 03:45:11;;;;;;;11.13;6.88;;;13.50;99.90;;;;;;5065256;28;20147;-80
2023/07/07 03:47:36;;;;;;;12.68;6.70;;;13.50;99.90;;;;;;5062425;28;20057;-79
2023/07/07 03:50:03;;;;;;;10.18;6.47;;;13.50;99.90;;;;;;5046621;28;20051;-79
2023/07/07 03:52:28;;;;;;;13.70;7.95;;;13.50;99.90;;;;;;5046988;28;20483;-79
2023/07/07 03:54:54;;;;;;;8.20;6.93;;;13.60;99.90;;;;;;5062048;28;20055;-79
2023/07/07 03:57:20;;;;;;;15.02;7.10;;;13.60;99.90;;;;;;5047770;28;20095;-80
2023/07/07 03:59:45;;;;;;;11.93;6.97;;;13.60;99.90;;;;;;5045237;28;20127;-78
2023/07/07 04:02:12;;;;;;;13.40;7.57;;;13.70;99.90;;;;;;5031166;28;20564;-78
2023/07/07 04:04:38;;;;;;;12.20;8.00;;;13.70;99.90;;;;;;5045389;28;20518;-79
2023/07/07 04:07:04;;;;;;;11.07;7.30;;;14.00;99.90;;;;;;5068062;28;20048;-80
2023/07/07 04:09:30;;;;;;;12.45;7.30;;;13.80;99.90;;;;;;5068916;28;20080;-80
2023/07/07 04:11:55;;;;;;;12.93;7.82;;;13.90;99.90;;;;;;5049910;28;20106;-80
2023/07/07 04:14:27;;;;;;;12.77;7.35;;;13.90;99.90;;;;;;5069462;28;20480;-80
2023/07/07 04:16:52;;;;;;;9.35;6.93;;;13.90;99.90;;;;;;5066530;28;20063;-79
2023/07/07 04:19:18;;;;;;;15.63;8.40;;;13.90;99.90;;;;;;5067927;28;20484;-79
2023/07/07 04:21:44;;;;;;;15.90;8.45;;;14.00;99.90;;;;;;5066060;28;20036;-79
2023/07/07 04:24:09;;;;;;;11.90;7.63;;;14.00;99.90;;;;;;5068389;28;20445;-79
2023/07/07 04:26:38;;;;;;;12.02;7.90;;;14.00;99.90;;;;;;5066899;28;20052;-79
2023/07/07 04:29:04;;;;;;;16.95;8.55;;;14.10;99.90;;;;;;5067257;28;20407;-80
2023/07/07 04:31:30;;;;;;;10.85;7.15;;;14.10;99.90;;;;;;5067398;28;20527;-80
2023/07/07 04:33:57;;;;;;;9.60;7.55;;;14.20;99.90;;;;;;5066554;28;20040;-79
2023/07/07 04:36:23;;;;;;;13.90;7.97;;;14.30;99.90;;;;;;5067958;28;20181;-80
2023/07/07 04:38:49;;;;;;;9.27;7.40;;;14.40;99.90;;;;;;5067857;28;20032;-79
2023/07/07 04:41:20;;;;;;;14.57;8.32;;;14.40;99.90;;;;;;5067137;28;20036;-78
2023/07/07 04:43:50;;;;;;;15.30;7.50;;;14.50;99.90;;;;;;5068531;28;20108;-79
2023/07/07 04:46:24;;;;;;;13.50;8.00;;;14.60;99.90;;;;;;5067976;28;20067;-81
2023/07/07 04:48:50;;;;;;;10.35;7.22;;;14.60;99.90;;;;;;5067690;28;20078;-79
2023/07/07 04:51:17;;;;;;;15.23;7.95;;;14.70;99.90;;;;;;5066732;28;20041;-79
2023/07/07 04:53:42;;;;;;;13.52;8.05;;;14.80;99.90;;;;;;5050991;28;20424;-79
2023/07/07 04:56:10;;;;;;;11.80;7.65;;;14.80;99.90;;;;;;5066928;28;20139;-78
2023/07/07 04:58:37;;;;;;;11.82;8.27;;;14.90;99.90;;;;;;5067401;28;20048;-79
2023/07/07 05:01:11;;;;;;;12.95;8.68;;;15.00;99.90;;;;;;5049899;28;20040;-80
2023/07/07 05:03:38;;;;;;;10.70;7.13;;;15.00;99.90;;;;;;5065575;28;20196;-79
2023/07/07 05:06:04;;;;;;;11.98;7.55;;;15.10;99.90;;;;;;5066424;28;20086;-80
2023/07/07 05:08:39;;;;;;;12.80;7.30;;;15.10;99.90;;;;;;5064511;28;20124;-81
2023/07/07 05:11:06;;;;;;;9.80;6.47;;;15.20;99.90;;;;;;5066058;28;20334;-82
2023/07/07 05:13:32;;;;;;;10.65;7.20;;;15.30;99.90;;;;;;5065835;28;20508;-80
2023/07/07 05:16:04;;;;;;;10.52;6.93;;;15.40;99.90;;;;;;5065301;28;20087;-81
2023/07/07 05:18:30;;;;;;;11.55;7.13;;;15.40;99.90;;;;;;5066557;28;20075;-80
2023/07/07 05:20:56;;;;;;;13.15;7.63;;;15.50;99.90;;;;;;5066288;28;20044;-80
2023/07/07 05:23:22;;;;;;;12.38;7.30;;;15.60;99.90;;;;;;5067305;28;20040;-84
2023/07/07 05:25:49;;;;;;;13.10;7.50;;;15.60;99.90;;;;;;5064959;28;20453;-80
2023/07/07 05:28:14;;;;;;;9.43;6.38;;;15.70;99.90;;;;;;5067503;28;20504;-80
2023/07/07 05:30:40;;;;;;;11.27;6.63;;;15.80;99.90;;;;;;5066995;28;20037;-82
2023/07/07 05:33:06;;;;;;;13.95;6.60;;;15.90;99.90;;;;;;5065860;28;20407;-82
2023/07/07 05:35:32;;;;;;;9.90;6.30;;;15.90;99.90;;;;;;5067811;28;20037;-81
2023/07/07 05:38:00;;;;;;;12.02;6.38;;;16.00;99.90;;;;;;5066036;28;20071;-85
2023/07/07 05:40:30;;;;;;;7.53;5.55;;;16.10;99.90;;;;;;5066477;28;20069;-81
2023/07/07 05:42:56;;;;;;;7.95;5.88;;;16.20;99.90;;;;;;5064859;28;20145;-81
2023/07/07 05:45:23;;;;;;;10.98;6.30;;;16.30;99.90;;;;;;5067031;28;20080;-81
2023/07/07 05:47:48;;;;;;;8.68;5.68;;;16.50;99.90;;;;;;5067247;28;20412;-81
2023/07/07 05:50:14;;;;;;;11.13;6.05;;;16.60;99.90;;;;;;5064263;28;20029;-83
2023/07/07 05:52:40;;;;;;;11.70;5.55;;;16.60;99.90;;;;;;5065453;28;20041;-83
2023/07/07 05:55:06;;;;;;;8.93;5.38;;;16.70;99.90;;;;;;5064114;28;20048;-80
2023/07/07 05:57:32;;;;;;;8.15;5.43;;;16.90;99.90;;;;;;5066273;28;20053;-81
2023/07/07 05:59:57;;;;;;;10.55;6.22;;;16.90;99.90;;;;;;5065595;28;20652;-81
2023/07/07 06:02:23;;;;;;;10.75;5.20;;;17.10;99.90;;;;;;5066645;28;20045;-82
2023/07/07 06:04:49;;;;;;;9.25;4.95;;;17.10;99.90;;;;;;5047962;28;20087;-81
2023/07/07 06:07:15;;;;;;;12.77;5.13;;;17.20;99.90;;;;;;5063940;28;20128;-80
2023/07/07 06:09:40;;;;;;;10.95;4.55;;;17.30;99.90;;;;;;5065399;28;20389;-80
2023/07/07 06:12:07;;;;;;;8.27;5.13;;;17.40;99.90;;;;;;5065734;28;20040;-80
2023/07/07 06:14:32;;;;;;;9.07;5.57;;;17.60;99.90;;;;;;5051096;28;20048;-80
2023/07/07 06:16:58;;;;;;;11.07;5.22;;;17.60;99.90;;;;;;5048903;28;20108;-81
2023/07/07 06:19:24;;;;;;;8.68;5.05;;;17.70;99.90;;;;;;5065351;28;20083;-81
2023/07/07 06:21:49;;;;;;;11.40;4.90;;;17.80;99.90;;;;;;5048109;28;20044;-81
2023/07/07 06:24:15;;;;;;;13.00;4.60;;;17.90;99.90;;;;;;5047569;28;20090;-83
2023/07/07 06:26:41;;;;;;;8.63;4.90;;;18.10;99.90;;;;;;5064874;28;20127;-81
2023/07/07 06:29:06;;;;;;;7.00;4.75;;;18.20;99.90;;;;;;5063531;28;20044;-81
2023/07/07 06:31:32;;;;;;;11.40;4.72;;;18.30;99.90;;;;;;5066423;28;20032;-80
2023/07/07 06:33:58;;;;;;;6.78;4.28;;;18.30;99.90;;;;;;5046639;28;20087;-82
2023/07/07 06:36:23;;;;;;;8.93;5.00;;;18.40;99.90;;;;;;5065097;28;20037;-81
2023/07/07 06:38:49;;;;;;;6.55;4.18;;;18.60;99.90;;;;;;5047192;28;20128;-82
2023/07/07 06:41:20;;;;;;;12.52;4.57;;;18.70;99.90;;;;;;5064227;28;20517;-81
2023/07/07 06:43:45;;;;;;;7.72;3.90;;;18.80;99.90;;;;;;5064477;28;20071;-82
2023/07/07 06:46:14;;;;;;;8.13;4.53;;;18.90;99.90;;;;;;5046160;28;20055;-81
2023/07/07 06:48:40;;;;;;;9.50;4.38;;;18.90;99.90;;;;;;5047618;28;20049;-82
2023/07/07 06:51:06;;;;;;;7.43;3.50;;;19.00;99.90;;;;;;5063862;28;20056;-83
2023/07/07 06:53:31;;;;;;;8.95;3.95;;;19.10;99.90;;;;;;5047112;28;20373;-81
2023/07/07 06:55:57;;;;;;;7.55;3.80;;;19.30;99.90;;;;;;5046865;28;20052;-79
2023/07/07 06:58:23;;;;;;;7.30;4.50;;;19.40;99.90;;;;;;5064627;28;20044;-80
2023/07/07 07:00:49;;;;;;;7.60;4.07;;;19.40;99.90;;;;;;5064389;28;20033;-80
2023/07/07 07:03:14;;;;;;;5.57;3.65;;;19.60;99.90;;;;;;5063056;28;20128;-79
2023/07/07 07:05:41;;;;;;;5.20;3.67;;;19.60;99.90;;;;;;5065393;28;20396;-80
2023/07/07 07:08:07;;;;;;;5.05;3.33;;;19.70;99.90;;;;;;5064133;28;20044;-80
2023/07/07 07:10:32;;;;;;;5.13;3.10;;;19.80;99.90;;;;;;5065446;28;20549;-80
2023/07/07 07:12:58;;;;;;;4.85;3.28;;;19.90;99.90;;;;;;5062831;28;20082;-80
2023/07/07 07:15:24;;;;;;;5.88;3.28;;;20.00;99.90;;;;;;5046173;28;20153;-81
2023/07/07 07:17:49;;;;;;;8.65;3.25;;;20.20;99.90;;;;;;5063886;28;20066;-80
2023/07/07 07:20:17;;;;;;;6.85;2.92;;;20.20;99.90;;;;;;5062545;28;20189;-81
2023/07/07 07:22:43;;;;;;;5.45;2.63;;;20.30;99.90;;;;;;5047938;28;20048;-80
2023/07/07 07:25:09;;;;;;;5.88;2.80;;;20.40;99.90;;;;;;5061680;28;20411;-80
2023/07/07 07:27:37;;;;;;;8.38;2.65;;;20.50;99.90;;;;;;5063575;28;20051;-80
2023/07/07 07:30:04;;;;;;;4.85;2.25;;;20.60;99.90;;;;;;5046821;28;20115;-80
2023/07/07 07:32:30;;;;;;;4.38;2.60;;;20.70;99.90;;;;;;5062732;28;20057;-81
2023/07/07 07:34:55;;;;;;;4.00;2.40;;;20.80;99.90;;;;;;5047201;28;20444;-82
2023/07/07 07:37:21;;;;;;;4.68;2.20;;;20.90;99.90;;;;;;5063271;28;20518;-80
2023/07/07 07:39:47;;;;;;;4.78;2.63;;;20.90;99.90;;;;;;5048698;28;20044;-80
2023/07/07 07:42:13;;;;;;;9.60;2.58;;;21.00;99.90;;;;;;5072902;28;20036;-80
2023/07/07 07:44:39;;;;;;;4.97;2.33;;;21.10;99.90;;;;;;5056124;28;20139;-80
2023/07/07 07:47:05;;;;;;;5.95;2.17;;;21.20;99.90;;;;;;5053863;28;20131;-80
2023/07/07 07:49:31;;;;;;;4.13;1.75;;;21.30;99.90;;;;;;5070349;28;20040;-80
2023/07/07 07:51:57;;;;;;;4.65;2.00;;;21.30;99.90;;;;;;5071886;28;20131;-81
2023/07/07 07:54:24;;;;;;;3.60;1.85;;;21.40;99.90;;;;;;5052556;28;20080;-81
2023/07/07 07:56:50;;;;;;;4.47;2.15;;;21.60;99.90;;;;;;5071992;28;20490;-81
2023/07/07 07:59:15;;;;;;;5.20;1.80;;;21.70;99.90;;;;;;5068557;28;20124;-81
2023/07/07 08:01:41;;;;;;;3.58;1.90;;;23.20;99.90;;;;;;5070740;28;20046;-81
2023/07/07 08:04:07;;;;;;;3.72;1.70;;;21.90;99.90;;;;;;5070394;28;20328;-81
2023/07/07 08:06:34;;;;;;;7.13;2.85;;;22.00;99.90;;;;;;5052995;28;20095;-81
2023/07/07 08:08:59;;;;;;;5.32;1.83;;;22.20;99.90;;;;;;5069949;28;20041;-82
2023/07/07 08:11:40;;;;;;;4.32;1.67;;;22.30;99.90;;;;;;5070622;28;20040;-81
2023/07/07 08:14:10;;;;;;;4.75;1.60;;;22.30;99.80;;;;;;5070236;28;20044;-80
2023/07/07 08:16:36;;;;;;;4.88;1.55;;;22.40;99.40;;;;;;5068785;28;20069;-81
2023/07/07 08:19:01;;;;;;;3.25;1.38;;;22.50;99.60;;;;;;5070317;28;20131;-80
2023/07/07 08:21:27;;;;;;;2.50;1.65;;;22.70;99.30;;;;;;5036060;28;20415;-79
2023/07/07 08:23:53;;;;;;;2.92;1.63;;;22.70;99.10;;;;;;5036242;28;20056;-82
2023/07/07 08:26:18;;;;;;;5.78;1.30;;;22.90;98.90;;;;;;5053107;28;20051;-80
2023/07/07 08:28:44;;;;;;;3.10;1.33;;;22.90;97.80;;;;;;5051527;28;20497;-81
2023/07/07 08:31:10;;;;;;;3.40;1.35;;;23.00;97.30;;;;;;5069656;28;20037;-81
2023/07/07 08:33:36;;;;;;;2.53;1.52;;;23.10;97.10;;;;;;5068132;28;20051;-80
2023/07/07 08:36:01;;;;;;;4.03;1.52;;;23.20;96.90;;;;;;5070464;28;20040;-80
2023/07/07 08:38:27;;;;;;;2.95;1.60;;;23.30;96.30;;;;;;5070013;28;20041;-81
2023/07/07 08:40:55;;;;;;;4.70;1.30;;;23.40;96.00;;;;;;5069310;28;20048;-81
2023/07/07 08:43:22;;;;;;;3.17;1.58;;;23.50;96.00;;;;;;5070828;28;20090;-81
2023/07/07 08:46:03;;;;;;;3.38;1.50;;;23.60;95.80;;;;;;5068824;28;20091;-81
2023/07/07 08:48:44;;;;;;;2.70;1.25;;;23.80;94.60;;;;;;5073506;28;20068;-81
2023/07/07 08:51:18;;;;;;;4.38;1.40;;;23.80;94.20;;;;;;5071685;28;20052;-82
2023/07/07 08:53:51;;;;;;;2.40;1.30;;;25.30;94.40;;;;;;5048338;28;20051;-82
2023/07/07 08:56:47;;;;;;;2.80;1.52;;;24.00;94.30;;;;;;5049761;28;20044;-81
2023/07/07 08:59:33;;;;;;;3.03;1.55;;;24.10;92.80;;;;;;5048452;28;20272;-81
2023/07/07 09:02:21;;;;;;;3.05;1.38;;;24.10;93.00;;;;;;5068067;28;20102;-81
2023/07/07 09:05:17;;;;;;;2.88;1.52;;;24.20;91.00;;;;;;5067245;28;20083;-82
2023/07/07 09:07:43;;;;;;;4.18;1.92;;;24.30;91.70;;;;;;5064788;28;20051;-82
2023/07/07 09:10:33;;;;;;;2.13;1.13;;;24.40;91.70;;;;;;5066202;28;20127;-81
2023/07/07 09:13:05;;;;;;;3.42;1.30;;;24.40;91.20;;;;;;5065476;28;20102;-82
2023/07/07 09:15:39;;;;;;;3.42;1.45;;;24.50;90.10;;;;;;5067524;28;20444;-81
2023/07/07 09:18:27;;;;;;;4.90;1.60;;;24.60;89.50;;;;;;5071768;28;20045;-80
2023/07/07 09:21:00;;;;;;;1.98;1.38;;;24.70;87.50;;;;;;5069690;28;20040;-80
2023/07/07 09:23:31;;;;;;;2.53;1.15;;;24.70;87.80;;;;;;5068412;28;20044;-82
2023/07/07 09:26:02;;;;;;;3.70;1.50;;;24.80;87.20;;;;;;5066539;28;20060;-82
2023/07/07 09:34:59;;;;;;;5.65;1.42;;;25.00;83.70;;;;;;5052454;28;20080;-88
2023/07/07 09:37:50;;;;;;;1.83;0.98;;;25.10;84.80;;;;;;5033514;28;20052;-88
2023/07/07 09:40:26;;;;;;;2.10;1.50;;;25.10;83.70;;;;;;5034968;28;20107;-88
2023/07/07 09:43:23;;;;;;;2.13;1.17;;;25.20;83.80;;;;;;5017182;28;20052;-89
2023/07/07 09:45:58;;;;;;;3.53;1.67;;;25.40;83.80;;;;;;5017306;28;20047;-88
2023/07/07 09:48:38;;;;;;;2.45;1.45;;;25.50;83.40;;;;;;5018552;28;20052;-88
2023/07/07 09:51:06;;;;;;;4.00;1.80;;;25.60;79.40;;;;;;5016463;28;20087;-87
2023/07/07 09:53:39;;;;;;;2.78;1.27;;;25.70;82.10;;;;;;5034516;28;20064;-88
2023/07/07 09:56:12;;;;;;;4.45;1.63;;;25.80;80.90;;;;;;5033687;28;20507;-88
2023/07/07 09:58:53;;;;;;;4.60;1.30;;;26.00;80.60;;;;;;5016611;28;20037;-89
2023/07/07 10:01:21;;;;;;;3.88;1.52;;;26.10;80.30;;;;;;5034542;28;20045;-88
2023/07/07 10:04:06;;;;;;;3.10;1.23;;;26.20;79.50;;;;;;5016226;28;20068;-89
2023/07/07 10:06:39;;;;;;;3.80;1.42;;;25.10;78.00;;;;;;5034302;28;20084;-89
2023/07/07 10:09:10;;;;;;;2.03;1.10;;;26.30;77.80;;;;;;5017300;28;20092;-92
2023/07/07 10:11:39;;;;;;;1.58;1.00;;;26.40;77.80;;;;;;5035254;28;20037;-85
2023/07/07 10:14:07;;;;;;;2.53;1.15;;;26.40;77.40;;;;;;5026100;28;20045;-89
2023/07/07 10:16:32;;;;;;;2.35;1.50;;;26.50;76.70;;;;;;5024538;28;20071;-89
2023/07/07 10:19:07;;;;;;;2.53;1.15;;;26.50;76.70;;;;;;5026443;28;20045;-86
2023/07/07 10:21:33;;;;;;;3.65;1.65;;;26.60;75.90;;;;;;5024382;28;20041;-88
2023/07/07 10:23:59;;;;;;;2.60;1.23;;;26.70;75.50;;;;;;5024327;28;20037;-88
2023/07/07 10:26:25;;;;;;;2.55;1.38;;;26.70;76.30;;;;;;5024483;28;20233;-87
2023/07/07 10:28:54;;;;;;;3.00;1.40;;;26.60;75.20;;;;;;5039900;28;20080;-89
2023/07/07 10:31:25;;;;;;;4.25;1.25;;;27.00;74.70;;;;;;5038665;28;20091;-88
2023/07/07 10:33:56;;;;;;;2.17;0.95;;;27.10;74.90;;;;;;5044397;28;20049;-87
2023/07/07 10:36:30;;;;;;;2.38;1.73;;;27.10;74.10;;;;;;5060757;28;20049;-88
2023/07/07 10:38:56;;;;;;;2.97;1.45;;;27.00;73.30;;;;;;5041321;28;20058;-85
2023/07/07 10:41:23;;;;;;;6.10;1.50;;;27.00;73.80;;;;;;5058533;28;20036;-88
2023/07/07 10:43:49;;;;;;;2.42;1.10;;;27.10;73.90;;;;;;5042694;28;20067;-87
2023/07/07 10:46:15;;;;;;;5.07;1.48;;;27.20;73.50;;;;;;5007600;28;20060;-87
2023/07/07 10:48:44;;;;;;;2.72;1.33;;;27.40;73.60;;;;;;5058984;28;20044;-87
2023/07/07 10:51:35;;;;;;;2.80;1.50;;;27.50;73.40;;;;;;5042041;28;20572;-86
2023/07/07 10:54:35;;;;;;;4.72;1.65;;;27.60;72.20;;;;;;5078459;28;20040;-90
2023/07/07 10:57:31;;;;;;;2.33;1.35;;;27.70;71.30;;;;;;5062386;28;20527;-89
2023/07/07 11:00:24;;;;;;;2.95;1.20;;;27.50;70.70;;;;;;5045311;28;20053;-89
2023/07/07 11:03:23;;;;;;;2.50;1.10;;;27.20;71.10;;;;;;5061249;28;20052;-86
2023/07/07 11:06:23;;;;;;;2.25;1.40;;;27.10;71.10;;;;;;5079879;28;20044;-86
2023/07/07 11:08:53;;;;;;;2.42;1.15;;;27.20;71.00;;;;;;5078209;28;20116;-87
2023/07/07 11:11:27;;;;;;;2.20;1.13;;;27.20;71.10;;;;;;5061251;28;20124;-86
2023/07/07 11:14:07;;;;;;;2.35;1.23;;;27.10;70.80;;;;;;5061736;28;20110;-86
2023/07/07 11:16:58;;;;;;;6.32;1.55;;;27.20;70.90;;;;;;5043429;28;20049;-85
2023/07/07 11:19:32;;;;;;;3.53;1.65;;;27.40;69.00;;;;;;5063152;28;20178;-87
2023/07/07 11:22:24;;;;;;;1.75;1.27;;;27.70;69.70;;;;;;5061281;28;20040;-86
2023/07/07 11:24:57;;;;;;;4.67;1.50;;;27.80;70.30;;;;;;5062445;28;20044;-88
2023/07/07 11:28:04;;;;;;;4.13;1.55;;;27.80;70.00;;;;;;5048562;28;20390;-88
2023/07/07 11:30:57;;;;;;;3.17;1.67;;;27.90;68.00;;;;;;5043161;28;20052;-86
2023/07/07 11:33:42;;;;;;;2.17;1.63;;;29.10;70.20;;;;;;5063859;28;20041;-85
2023/07/07 11:36:20;;;;;;;2.28;1.30;;;27.60;69.30;;;;;;5063766;28;20055;-87
2023/07/07 11:39:09;;;;;;;4.10;1.65;;;27.30;69.20;;;;;;5044549;28;20052;-86
2023/07/07 11:42:05;;;;;;;1.95;1.42;;;27.20;69.10;;;;;;5052381;28;20059;-86
2023/07/07 11:44:44;;;;;;;2.05;1.40;;;27.30;70.30;;;;;;5078553;28;20078;-87
2023/07/07 11:47:26;;;;;;;2.38;1.25;;;27.60;70.40;;;;;;5078866;28;20041;-88
2023/07/07 11:50:22;;;;;;;2.15;1.48;;;27.80;70.00;;;;;;5061525;28;20048;-86
2023/07/07 11:53:00;;;;;;;5.25;1.52;;;27.20;68.80;;;;;;5062486;28;20107;-88
2023/07/07 11:55:46;;;;;;;4.15;1.20;;;28.00;68.30;;;;;;5060261;28;20044;-86
2023/07/07 11:58:12;;;;;;;1.75;1.20;;;29.60;71.40;;;;;;5046145;28;20105;-88
2023/07/07 12:00:38;;;;;;;3.50;1.42;;;28.50;69.20;;;;;;5049502;28;20076;-89
2023/07/07 12:03:35;;;;;;;1.98;1.30;;;28.60;67.80;;;;;;5046353;28;20044;-87
2023/07/07 12:06:26;;;;;;;2.67;2.10;;;28.70;66.40;;;;;;5039743;28;20052;-88
2023/07/07 12:08:59;;;;;;;4.47;1.42;;;28.60;66.60;;;;;;5045404;28;20037;-88
2023/07/07 12:11:31;;;;;;;2.67;1.20;;;28.50;67.10;;;;;;5044443;28;20114;-88
2023/07/07 12:14:06;;;;;;;2.87;1.30;;;28.80;66.90;;;;;;5060123;28;20127;-87
2023/07/07 12:16:36;;;;;;;2.25;1.30;;;28.80;66.10;;;;;;5042642;28;20286;-91
2023/07/07 12:19:30;;;;;;;3.22;1.50;;;29.20;66.00;;;;;;5047352;28;20071;-88
2023/07/07 12:21:58;;;;;;;3.75;1.38;;;28.80;64.20;;;;;;5036826;28;20083;-84
2023/07/07 12:24:31;;;;;;;4.03;1.50;;;28.80;66.10;;;;;;5052096;28;20044;-85
2023/07/07 12:27:08;;;;;;;3.10;1.52;;;28.90;66.10;;;;;;5070804;28;20186;-86
2023/07/07 12:29:39;;;;;;;1.80;1.10;;;29.00;66.20;;;;;;5056904;28;20105;-85
2023/07/07 12:32:05;;;;;;;3.30;1.13;;;29.10;65.10;;;;;;5075826;28;20124;-85
2023/07/07 12:34:40;;;;;;;3.72;1.40;;;29.10;64.60;;;;;;5055624;28;20104;-86
2023/07/07 12:37:15;;;;;;;3.17;1.20;;;29.20;63.20;;;;;;5074890;28;20075;-85
2023/07/07 12:39:51;;;;;;;3.45;1.42;;;29.10;63.20;;;;;;5055705;28;20040;-87
2023/07/07 12:42:17;;;;;;;4.78;2.10;;;29.20;63.20;;;;;;5038406;28;20060;-86
2023/07/07 12:44:45;;;;;;;9.57;1.45;;;29.20;62.90;;;;;;5055740;28;20447;-85
2023/07/07 12:47:40;;;;;;;2.83;1.50;;;29.20;62.70;;;;;;5070981;28;20055;-85
2023/07/07 12:50:27;;;;;;;2.40;1.15;;;29.30;63.70;;;;;;5037596;28;20404;-85
2023/07/07 12:52:58;;;;;;;5.22;1.40;;;29.40;62.00;;;;;;5073160;28;20060;-84
2023/07/07 12:55:30;;;;;;;2.67;1.60;;;29.50;61.70;;;;;;5052740;28;20131;-81
2023/07/07 12:58:16;;;;;;;;;;;29.40;61.60;;;;;;5054843;28;20438;-82
2023/07/07 13:00:43;;;;;;;2.95;1.30;;;29.50;62.50;;;;;;5052090;28;19966;-83
2023/07/07 13:03:09;;;;;;;3.97;1.48;;;29.50;61.70;;;;;;5054787;28;20044;-88
2023/07/07 13:05:42;;;;;;;2.67;1.85;;;29.60;61.50;;;;;;5071962;28;20143;-84
2023/07/07 13:08:08;;;;;;;6.65;1.45;;;29.60;60.80;;;;;;5071522;28;20372;-86
2023/07/07 13:10:49;;;;;;;2.75;1.60;;;29.60;61.40;;;;;;5056643;28;20047;-86